sensor_id;sensor_type;location;lat;lon;timestamp;pressure;altitude;pressure_sealevel;temperature;humidity
14790;BME280;7486;51.010;10.366;2023-01-28T00:01:16;99192.84;;;-2.71;87.35
14790;BME280;7486;51.010;10.366;2023-01-28T00:03:43;99197.06;;;-2.97;88.20
14790;BME280;7486;51.010;10.366;2023-01-28T00:06:13;99195.44;;;-2.98;88.70
14790;BME280;7486;51.010;10.366;2023-01-28T00:08:40;99197.44;;;-2.89;88.52
14790;BME280;7486;51.010;10.366;2023-01-28T00:11:10;99201.88;;;-2.64;87.10
14790;BME280;7486;51.010;10.366;2023-01-28T00:13:37;99167.81;;;-2.72;85.87
14790;BME280;7486;51.010;10.366;2023-01-28T00:16:06;99189.16;;;-2.55;85.32
14790;BME280;7486;51.010;10.366;2023-01-28T00:18:33;99193.31;;;-2.79;86.51
14790;BME280;7486;51.010;10.366;2023-01-28T00:21:11;99203.38;;;-2.48;85.21
14790;BME280;7486;51.010;10.366;2023-01-28T00:23:39;99197.34;;;-2.61;85.41
14790;BME280;7486;51.010;10.366;2023-01-28T00:26:10;99194.84;;;-2.50;84.56
14790;BME280;7486;51.010;10.366;2023-01-28T00:28:41;99196.88;;;-2.94;87.30
14790;BME280;7486;51.010;10.366;2023-01-28T00:31:11;99200.53;;;-2.84;87.45
14790;BME280;7486;51.010;10.366;2023-01-28T00:33:38;99204.09;;;-2.46;86.12
14790;BME280;7486;51.010;10.366;2023-01-28T00:36:05;99163.06;;;-2.66;85.07
14790;BME280;7486;51.010;10.366;2023-01-28T00:38:33;99196.22;;;-2.44;84.68
14790;BME280;7486;51.010;10.366;2023-01-28T00:41:11;99192.03;;;-2.59;85.46
14790;BME280;7486;51.010;10.366;2023-01-28T00:43:39;99191.34;;;-2.49;83.72
14790;BME280;7486;51.010;10.366;2023-01-28T00:46:08;99163.88;;;-2.78;84.27
14790;BME280;7486;51.010;10.366;2023-01-28T00:48:36;99195.47;;;-2.59;83.78
14790;BME280;7486;51.010;10.366;2023-01-28T00:51:05;99183.41;;;-2.60;83.44
14790;BME280;7486;51.010;10.366;2023-01-28T00:53:33;99182.94;;;-2.79;84.21
14790;BME280;7486;51.010;10.366;2023-01-28T00:55:59;99165.50;;;-2.77;84.14
14790;BME280;7486;51.010;10.366;2023-01-28T00:58:26;99164.19;;;-2.70;84.53
14790;BME280;7486;51.010;10.366;2023-01-28T01:00:53;99183.13;;;-2.42;83.01
14790;BME280;7486;51.010;10.366;2023-01-28T01:03:20;99179.91;;;-2.59;83.19
14790;BME280;7486;51.010;10.366;2023-01-28T01:05:46;99186.06;;;-2.47;83.07
14790;BME280;7486;51.010;10.366;2023-01-28T01:08:13;99197.06;;;-2.43;82.67
14790;BME280;7486;51.010;10.366;2023-01-28T01:10:40;99185.09;;;-2.59;82.83
14790;BME280;7486;51.010;10.366;2023-01-28T01:13:07;99182.53;;;-2.73;83.57
14790;BME280;7486;51.010;10.366;2023-01-28T01:15:34;99186.97;;;-2.61;83.18
14790;BME280;7486;51.010;10.366;2023-01-28T01:18:02;99182.53;;;-2.73;82.94
14790;BME280;7486;51.010;10.366;2023-01-28T01:20:28;99184.41;;;-2.75;83.32
14790;BME280;7486;51.010;10.366;2023-01-28T01:22:55;99186.63;;;-2.96;84.06
14790;BME280;7486;51.010;10.366;2023-01-28T01:25:22;99187.25;;;-2.92;83.63
14790;BME280;7486;51.010;10.366;2023-01-28T01:27:49;99180.25;;;-2.77;83.09
14790;BME280;7486;51.010;10.366;2023-01-28T01:30:16;99180.50;;;-2.68;82.59
14790;BME280;7486;51.010;10.366;2023-01-28T01:32:43;99157.78;;;-2.91;82.56
14790;BME280;7486;51.010;10.366;2023-01-28T01:35:10;99190.00;;;-2.81;83.32
14790;BME280;7486;51.010;10.366;2023-01-28T01:37:38;99192.44;;;-2.65;82.83
14790;BME280;7486;51.010;10.366;2023-01-28T01:40:06;99195.47;;;-2.59;82.97
14790;BME280;7486;51.010;10.366;2023-01-28T01:42:33;99191.59;;;-2.92;83.80
14790;BME280;7486;51.010;10.366;2023-01-28T01:45:12;99184.63;;;-2.78;84.07
14790;BME280;7486;51.010;10.366;2023-01-28T01:50:35;99191.00;;;-2.57;82.68
14790;BME280;7486;51.010;10.366;2023-01-28T01:53:08;99163.25;;;-2.81;82.65
14790;BME280;7486;51.010;10.366;2023-01-28T01:55:38;99193.03;;;-2.74;83.43
14790;BME280;7486;51.010;10.366;2023-01-28T01:58:10;99185.50;;;-2.65;82.49
14790;BME280;7486;51.010;10.366;2023-01-28T02:00:40;99198.25;;;-2.62;82.46
14790;BME280;7486;51.010;10.366;2023-01-28T02:03:08;99201.50;;;-2.85;83.30
14790;BME280;7486;51.010;10.366;2023-01-28T02:05:37;99184.69;;;-3.06;83.75
14790;BME280;7486;51.010;10.366;2023-01-28T02:08:04;99202.06;;;-2.94;83.96
14790;BME280;7486;51.010;10.366;2023-01-28T02:10:31;99215.19;;;-3.38;85.50
14790;BME280;7486;51.010;10.366;2023-01-28T02:12:58;99212.00;;;-3.15;84.98
14790;BME280;7486;51.010;10.366;2023-01-28T02:15:25;99206.41;;;-2.95;84.43
14790;BME280;7486;51.010;10.366;2023-01-28T02:17:53;99206.63;;;-2.71;82.64
14790;BME280;7486;51.010;10.366;2023-01-28T02:20:36;99229.91;;;-2.83;83.53
14790;BME280;7486;51.010;10.366;2023-01-28T02:23:20;99229.81;;;-2.82;83.12
14790;BME280;7486;51.010;10.366;2023-01-28T02:31:23;99236.06;;;-2.72;83.04
14790;BME280;7486;51.010;10.366;2023-01-28T02:39:21;99223.94;;;-2.98;82.38
14790;BME280;7486;51.010;10.366;2023-01-28T02:41:54;99223.81;;;-2.97;82.14
14790;BME280;7486;51.010;10.366;2023-01-28T02:44:22;99227.28;;;-3.10;83.11
14790;BME280;7486;51.010;10.366;2023-01-28T02:46:51;99212.47;;;-3.08;82.63
14790;BME280;7486;51.010;10.366;2023-01-28T02:49:30;99239.50;;;-2.98;82.02
14790;BME280;7486;51.010;10.366;2023-01-28T02:52:40;99240.63;;;-3.16;83.40
14790;BME280;7486;51.010;10.366;2023-01-28T02:55:14;99229.13;;;-2.98;82.69
14790;BME280;7486;51.010;10.366;2023-01-28T02:58:00;99215.88;;;-3.08;82.86
14790;BME280;7486;51.010;10.366;2023-01-28T03:00:53;99233.66;;;-3.02;82.53
14790;BME280;7486;51.010;10.366;2023-01-28T03:03:30;99238.56;;;-3.11;82.96
14790;BME280;7486;51.010;10.366;2023-01-28T03:06:06;99249.47;;;-2.92;82.07
14790;BME280;7486;51.010;10.366;2023-01-28T03:08:42;99258.94;;;-3.05;81.86
14790;BME280;7486;51.010;10.366;2023-01-28T03:11:10;99218.22;;;-3.17;82.10
14790;BME280;7486;51.010;10.366;2023-01-28T03:13:37;99250.94;;;-2.88;81.51
14790;BME280;7486;51.010;10.366;2023-01-28T03:16:05;99237.31;;;-3.32;82.23
14790;BME280;7486;51.010;10.366;2023-01-28T03:18:44;99255.72;;;-3.37;83.71
14790;BME280;7486;51.010;10.366;2023-01-28T03:21:31;99267.09;;;-3.25;83.08
14790;BME280;7486;51.010;10.366;2023-01-28T03:24:27;99265.81;;;-3.32;83.01
14790;BME280;7486;51.010;10.366;2023-01-28T03:27:07;99273.94;;;-3.24;82.47
14790;BME280;7486;51.010;10.366;2023-01-28T03:29:36;99271.72;;;-3.16;82.57
14790;BME280;7486;51.010;10.366;2023-01-28T03:32:10;99257.91;;;-3.03;81.85
14790;BME280;7486;51.010;10.366;2023-01-28T03:34:37;99269.59;;;-3.38;82.43
14790;BME280;7486;51.010;10.366;2023-01-28T03:37:06;99282.66;;;-3.54;84.46
14790;BME280;7486;51.010;10.366;2023-01-28T03:39:36;99265.25;;;-3.23;83.08
14790;BME280;7486;51.010;10.366;2023-01-28T03:44:35;99222.13;;;-3.38;81.52
14790;BME280;7486;51.010;10.366;2023-01-28T03:47:02;99271.22;;;-2.95;80.47
14790;BME280;7486;51.010;10.366;2023-01-28T03:49:29;99231.25;;;-3.05;80.44
14790;BME280;7486;51.010;10.366;2023-01-28T03:51:56;99271.16;;;-2.66;79.99
14790;BME280;7486;51.010;10.366;2023-01-28T03:54:23;99268.81;;;-2.57;79.42
14790;BME280;7486;51.010;10.366;2023-01-28T03:56:50;99253.44;;;-2.86;79.58
14790;BME280;7486;51.010;10.366;2023-01-28T03:59:16;99235.78;;;-3.08;80.18
14790;BME280;7486;51.010;10.366;2023-01-28T04:01:43;99270.13;;;-2.64;79.74
14790;BME280;7486;51.010;10.366;2023-01-28T04:04:11;99276.66;;;-2.71;79.25
14790;BME280;7486;51.010;10.366;2023-01-28T04:06:38;99283.56;;;-2.98;80.42
14790;BME280;7486;51.010;10.366;2023-01-28T04:09:30;99267.06;;;-3.11;81.82
14790;BME280;7486;51.010;10.366;2023-01-28T04:12:15;99274.66;;;-3.08;81.63
14790;BME280;7486;51.010;10.366;2023-01-28T04:14:47;99277.81;;;-3.17;82.77
14790;BME280;7486;51.010;10.366;2023-01-28T04:17:23;99273.00;;;-3.09;81.95
14790;BME280;7486;51.010;10.366;2023-01-28T04:19:49;99279.09;;;-2.96;80.61
14790;BME280;7486;51.010;10.366;2023-01-28T04:22:17;99266.53;;;-3.16;82.48
14790;BME280;7486;51.010;10.366;2023-01-28T04:24:44;99275.22;;;-3.03;82.31
14790;BME280;7486;51.010;10.366;2023-01-28T04:27:11;99278.16;;;-2.81;81.25
14790;BME280;7486;51.010;10.366;2023-01-28T04:29:37;99270.81;;;-2.74;79.90
14790;BME280;7486;51.010;10.366;2023-01-28T04:32:22;99278.09;;;-2.67;79.84
14790;BME280;7486;51.010;10.366;2023-01-28T04:35:07;99282.59;;;-2.83;79.78
14790;BME280;7486;51.010;10.366;2023-01-28T04:37:48;99261.75;;;-3.22;80.07
14790;BME280;7486;51.010;10.366;2023-01-28T04:40:38;99276.59;;;-2.98;80.58
14790;BME280;7486;51.010;10.366;2023-01-28T04:43:09;99292.53;;;-3.04;80.76
14790;BME280;7486;51.010;10.366;2023-01-28T04:45:48;99284.09;;;-2.93;80.44
14790;BME280;7486;51.010;10.366;2023-01-28T04:48:24;99286.84;;;-2.82;79.87
14790;BME280;7486;51.010;10.366;2023-01-28T04:51:05;99290.16;;;-2.80;79.86
14790;BME280;7486;51.010;10.366;2023-01-28T04:53:55;99283.22;;;-2.79;79.54
14790;BME280;7486;51.010;10.366;2023-01-28T04:56:25;99274.44;;;-2.91;79.71
14790;BME280;7486;51.010;10.366;2023-01-28T04:58:52;99278.91;;;-2.93;80.34
14790;BME280;7486;51.010;10.366;2023-01-28T05:01:18;99281.88;;;-2.85;79.66
14790;BME280;7486;51.010;10.366;2023-01-28T05:03:45;99281.28;;;-2.76;78.89
14790;BME280;7486;51.010;10.366;2023-01-28T05:06:20;99258.41;;;-2.83;78.39
14790;BME280;7486;51.010;10.366;2023-01-28T05:08:49;99287.38;;;-2.77;78.14
14790;BME280;7486;51.010;10.366;2023-01-28T05:11:16;99288.22;;;-2.76;78.34
14790;BME280;7486;51.010;10.366;2023-01-28T05:13:45;99297.94;;;-2.80;78.22
14790;BME280;7486;51.010;10.366;2023-01-28T05:16:12;99292.56;;;-2.77;78.21
14790;BME280;7486;51.010;10.366;2023-01-28T05:18:39;99280.28;;;-2.87;78.19
14790;BME280;7486;51.010;10.366;2023-01-28T05:21:13;99295.75;;;-2.86;78.33
14790;BME280;7486;51.010;10.366;2023-01-28T05:23:39;99291.47;;;-2.73;78.17
14790;BME280;7486;51.010;10.366;2023-01-28T05:26:06;99294.88;;;-2.72;77.84
14790;BME280;7486;51.010;10.366;2023-01-28T05:28:33;99296.69;;;-2.60;77.74
14790;BME280;7486;51.010;10.366;2023-01-28T05:31:04;99302.34;;;-2.54;77.64
14790;BME280;7486;51.010;10.366;2023-01-28T05:33:32;99307.53;;;-2.54;77.35
14790;BME280;7486;51.010;10.366;2023-01-28T05:35:59;99304.16;;;-2.68;77.35
14790;BME280;7486;51.010;10.366;2023-01-28T05:38:27;99305.97;;;-2.70;77.48
14790;BME280;7486;51.010;10.366;2023-01-28T05:40:53;99301.50;;;-2.81;76.64
14790;BME280;7486;51.010;10.366;2023-01-28T05:43:21;99294.66;;;-2.96;76.33
14790;BME280;7486;51.010;10.366;2023-01-28T05:46:07;99303.34;;;-2.97;77.26
14790;BME280;7486;51.010;10.366;2023-01-28T05:48:54;99264.34;;;-3.36;76.04
14790;BME280;7486;51.010;10.366;2023-01-28T05:51:41;99212.91;;;-3.71;76.30
14790;BME280;7486;51.010;10.366;2023-01-28T05:54:09;99307.53;;;-3.09;76.35
14790;BME280;7486;51.010;10.366;2023-01-28T05:56:36;99312.72;;;-3.23;75.70
14790;BME280;7486;51.010;10.366;2023-01-28T05:59:03;99306.06;;;-3.27;75.69
14790;BME280;7486;51.010;10.366;2023-01-28T06:01:30;99309.00;;;-3.47;76.35
14790;BME280;7486;51.010;10.366;2023-01-28T06:03:57;99300.47;;;-3.49;76.45
14790;BME280;7486;51.010;10.366;2023-01-28T06:06:27;99310.75;;;-3.48;77.13
14790;BME280;7486;51.010;10.366;2023-01-28T06:08:54;99317.97;;;-3.38;76.85
14790;BME280;7486;51.010;10.366;2023-01-28T06:11:26;99320.03;;;-3.29;76.36
14790;BME280;7486;51.010;10.366;2023-01-28T06:13:58;99323.94;;;-3.22;75.55
14790;BME280;7486;51.010;10.366;2023-01-28T06:16:40;99326.50;;;-3.22;75.29
14790;BME280;7486;51.010;10.366;2023-01-28T06:19:34;99326.97;;;-3.30;75.37
14790;BME280;7486;51.010;10.366;2023-01-28T06:22:01;99334.81;;;-3.46;75.45
14790;BME280;7486;51.010;10.366;2023-01-28T06:24:29;99337.31;;;-3.44;76.31
14790;BME280;7486;51.010;10.366;2023-01-28T06:26:57;99341.22;;;-3.37;75.45
14790;BME280;7486;51.010;10.366;2023-01-28T06:29:24;99329.94;;;-3.36;75.21
14790;BME280;7486;51.010;10.366;2023-01-28T06:31:51;99334.81;;;-3.46;75.03
14790;BME280;7486;51.010;10.366;2023-01-28T06:34:18;99358.03;;;-3.44;75.24
14790;BME280;7486;51.010;10.366;2023-01-28T06:36:45;99356.66;;;-3.35;74.57
14790;BME280;7486;51.010;10.366;2023-01-28T06:39:11;99360.38;;;-3.39;73.94
14790;BME280;7486;51.010;10.366;2023-01-28T06:41:38;99358.00;;;-3.58;74.71
14790;BME280;7486;51.010;10.366;2023-01-28T06:44:05;99341.75;;;-3.46;74.25
14790;BME280;7486;51.010;10.366;2023-01-28T06:46:33;99331.28;;;-3.44;73.91
14790;BME280;7486;51.010;10.366;2023-01-28T06:49:00;99304.25;;;-3.69;73.01
14790;BME280;7486;51.010;10.366;2023-01-28T06:51:27;99343.34;;;-3.29;73.43
14790;BME280;7486;51.010;10.366;2023-01-28T06:53:54;99352.75;;;-3.28;73.20
14790;BME280;7486;51.010;10.366;2023-01-28T06:56:25;99364.81;;;-3.27;72.95
14790;BME280;7486;51.010;10.366;2023-01-28T06:58:52;99350.91;;;-3.40;73.21
14790;BME280;7486;51.010;10.366;2023-01-28T07:01:19;99363.78;;;-3.25;72.76
14790;BME280;7486;51.010;10.366;2023-01-28T07:03:45;99306.47;;;-3.63;74.08
14790;BME280;7486;51.010;10.366;2023-01-28T07:06:12;99367.41;;;-3.27;73.09
14790;BME280;7486;51.010;10.366;2023-01-28T07:08:39;99361.81;;;-3.50;73.62
14790;BME280;7486;51.010;10.366;2023-01-28T07:11:06;99366.56;;;-3.28;72.91
14790;BME280;7486;51.010;10.366;2023-01-28T07:13:33;99362.56;;;-3.48;73.12
14790;BME280;7486;51.010;10.366;2023-01-28T07:16:01;99315.91;;;-3.62;73.38
14790;BME280;7486;51.010;10.366;2023-01-28T07:18:28;99354.91;;;-3.21;72.88
14790;BME280;7486;51.010;10.366;2023-01-28T07:20:55;99366.31;;;-3.23;73.69
14790;BME280;7486;51.010;10.366;2023-01-28T07:23:22;99373.16;;;-3.22;73.57
14790;BME280;7486;51.010;10.366;2023-01-28T07:25:49;99350.66;;;-3.36;73.45
14790;BME280;7486;51.010;10.366;2023-01-28T07:28:16;99317.81;;;-3.50;73.88
14790;BME280;7486;51.010;10.366;2023-01-28T07:30:43;99369.91;;;-3.12;73.37
14790;BME280;7486;51.010;10.366;2023-01-28T07:33:10;99386.66;;;-3.17;73.35
14790;BME280;7486;51.010;10.366;2023-01-28T07:35:37;99380.16;;;-3.24;72.24
14790;BME280;7486;51.010;10.366;2023-01-28T07:38:03;99386.44;;;-3.28;72.79
14790;BME280;7486;51.010;10.366;2023-01-28T07:40:30;99385.78;;;-3.32;72.85
14790;BME280;7486;51.010;10.366;2023-01-28T07:42:57;99333.69;;;-3.56;72.56
14790;BME280;7486;51.010;10.366;2023-01-28T07:45:25;99368.41;;;-3.30;72.50
14790;BME280;7486;51.010;10.366;2023-01-28T07:47:54;99383.97;;;-3.30;72.85
14790;BME280;7486;51.010;10.366;2023-01-28T07:50:21;99381.41;;;-3.60;74.04
14790;BME280;7486;51.010;10.366;2023-01-28T07:52:48;99394.50;;;-3.33;72.87
14790;BME280;7486;51.010;10.366;2023-01-28T07:55:15;99394.78;;;-3.67;74.32
14790;BME280;7486;51.010;10.366;2023-01-28T07:57:51;99392.81;;;-3.78;74.71
14790;BME280;7486;51.010;10.366;2023-01-28T08:00:20;99405.28;;;-3.55;74.37
14790;BME280;7486;51.010;10.366;2023-01-28T08:02:48;99374.19;;;-3.55;73.96
14790;BME280;7486;51.010;10.366;2023-01-28T08:05:19;99366.53;;;-3.42;73.51
14790;BME280;7486;51.010;10.366;2023-01-28T08:07:47;99335.91;;;-3.64;73.08
14790;BME280;7486;51.010;10.366;2023-01-28T08:10:16;99390.88;;;-3.44;72.94
14790;BME280;7486;51.010;10.366;2023-01-28T08:12:53;99382.88;;;-3.56;73.50
14790;BME280;7486;51.010;10.366;2023-01-28T08:15:21;99394.91;;;-3.55;73.32
14790;BME280;7486;51.010;10.366;2023-01-28T08:17:47;99395.50;;;-3.50;73.35
14790;BME280;7486;51.010;10.366;2023-01-28T08:20:14;99380.56;;;-3.60;74.32
14790;BME280;7486;51.010;10.366;2023-01-28T08:22:41;99361.56;;;-3.75;74.19
14790;BME280;7486;51.010;10.366;2023-01-28T08:25:08;99396.41;;;-3.51;73.68
14790;BME280;7486;51.010;10.366;2023-01-28T08:27:35;99395.41;;;-3.48;73.39
14790;BME280;7486;51.010;10.366;2023-01-28T08:30:02;99393.28;;;-3.41;73.88
14790;BME280;7486;51.010;10.366;2023-01-28T08:32:29;99392.94;;;-3.21;72.82
14790;BME280;7486;51.010;10.366;2023-01-28T08:34:56;99398.84;;;-3.33;72.12
14790;BME280;7486;51.010;10.366;2023-01-28T08:37:23;99398.84;;;-3.33;71.93
14790;BME280;7486;51.010;10.366;2023-01-28T08:39:49;99378.28;;;-3.51;71.79
14790;BME280;7486;51.010;10.366;2023-01-28T08:42:16;99371.88;;;-3.59;71.29
14790;BME280;7486;51.010;10.366;2023-01-28T08:44:43;99399.56;;;-3.46;71.03
14790;BME280;7486;51.010;10.366;2023-01-28T08:47:10;99392.38;;;-3.40;71.10
14790;BME280;7486;51.010;10.366;2023-01-28T08:49:36;99409.94;;;-3.31;71.46
14790;BME280;7486;51.010;10.366;2023-01-28T08:52:03;99408.38;;;-3.34;71.24
14790;BME280;7486;51.010;10.366;2023-01-28T08:54:30;99409.41;;;-3.36;70.41
14790;BME280;7486;51.010;10.366;2023-01-28T08:56:58;99413.63;;;-3.35;71.44
14790;BME280;7486;51.010;10.366;2023-01-28T08:59:25;99412.72;;;-3.34;70.68
14790;BME280;7486;51.010;10.366;2023-01-28T09:01:52;99412.06;;;-3.38;71.38
14790;BME280;7486;51.010;10.366;2023-01-28T09:04:19;99420.72;;;-3.23;71.09
14790;BME280;7486;51.010;10.366;2023-01-28T09:06:45;99422.03;;;-3.16;70.97
14790;BME280;7486;51.010;10.366;2023-01-28T09:09:12;99423.09;;;-3.34;69.13
14790;BME280;7486;51.010;10.366;2023-01-28T09:11:39;99407.25;;;-3.44;69.87
14790;BME280;7486;51.010;10.366;2023-01-28T09:14:06;99417.44;;;-3.41;70.09
14790;BME280;7486;51.010;10.366;2023-01-28T09:16:32;99429.03;;;-3.32;68.99
14790;BME280;7486;51.010;10.366;2023-01-28T09:18:59;99425.84;;;-3.37;68.71
14790;BME280;7486;51.010;10.366;2023-01-28T09:21:25;99417.25;;;-3.38;68.25
14790;BME280;7486;51.010;10.366;2023-01-28T09:23:53;99431.47;;;-3.15;67.86
14790;BME280;7486;51.010;10.366;2023-01-28T09:26:21;99425.41;;;-3.30;67.22
14790;BME280;7486;51.010;10.366;2023-01-28T09:28:49;99425.78;;;-3.36;67.96
14790;BME280;7486;51.010;10.366;2023-01-28T09:31:16;99435.31;;;-3.36;69.42
14790;BME280;7486;51.010;10.366;2023-01-28T09:33:42;99440.06;;;-3.29;69.55
14790;BME280;7486;51.010;10.366;2023-01-28T09:36:10;99442.66;;;-3.15;68.60
14790;BME280;7486;51.010;10.366;2023-01-28T09:38:36;99440.53;;;-3.08;68.72
14790;BME280;7486;51.010;10.366;2023-01-28T09:41:34;99440.53;;;-3.08;69.36
14790;BME280;7486;51.010;10.366;2023-01-28T09:44:11;99442.66;;;-3.01;67.96
14790;BME280;7486;51.010;10.366;2023-01-28T09:46:43;99444.81;;;-2.93;67.88
14790;BME280;7486;51.010;10.366;2023-01-28T09:49:23;99449.81;;;-2.90;68.09
14790;BME280;7486;51.010;10.366;2023-01-28T09:51:54;99448.03;;;-3.04;68.36
14790;BME280;7486;51.010;10.366;2023-01-28T09:54:41;99453.16;;;-3.02;69.38
14790;BME280;7486;51.010;10.366;2023-01-28T09:57:25;99464.44;;;-3.03;69.81
14790;BME280;7486;51.010;10.366;2023-01-28T09:59:56;99460.75;;;-2.99;69.40
14790;BME280;7486;51.010;10.366;2023-01-28T10:08:00;99464.13;;;-3.13;69.41
14790;BME280;7486;51.010;10.366;2023-01-28T10:10:43;99468.88;;;-3.35;68.34
14790;BME280;7486;51.010;10.366;2023-01-28T10:16:18;99476.03;;;-3.24;68.88
14790;BME280;7486;51.010;10.366;2023-01-28T10:18:54;99475.19;;;-3.25;68.87
14790;BME280;7486;51.010;10.366;2023-01-28T10:21:33;99465.41;;;-3.20;70.36
14790;BME280;7486;51.010;10.366;2023-01-28T10:24:07;99445.88;;;-3.11;68.37
14790;BME280;7486;51.010;10.366;2023-01-28T10:26:39;99465.09;;;-3.00;67.02
14790;BME280;7486;51.010;10.366;2023-01-28T10:29:17;99470.22;;;-3.14;67.53
14790;BME280;7486;51.010;10.366;2023-01-28T10:32:20;99464.63;;;-3.06;68.07
14790;BME280;7486;51.010;10.366;2023-01-28T10:34:51;99465.50;;;-3.21;67.71
14790;BME280;7486;51.010;10.366;2023-01-28T10:37:18;99463.56;;;-3.18;67.15
14790;BME280;7486;51.010;10.366;2023-01-28T10:39:45;99449.94;;;-3.21;67.58
14790;BME280;7486;51.010;10.366;2023-01-28T10:44:51;99463.63;;;-3.33;69.01
14790;BME280;7486;51.010;10.366;2023-01-28T10:47:27;99464.31;;;-3.16;67.94
14790;BME280;7486;51.010;10.366;2023-01-28T10:49:57;99462.16;;;-3.23;66.71
14790;BME280;7486;51.010;10.366;2023-01-28T10:52:24;99458.69;;;-3.38;67.39
14790;BME280;7486;51.010;10.366;2023-01-28T10:55:05;99477.34;;;-3.17;66.19
14790;BME280;7486;51.010;10.366;2023-01-28T10:57:33;99471.03;;;-3.27;66.58
14790;BME280;7486;51.010;10.366;2023-01-28T11:02:49;99473.56;;;-3.26;67.59
14790;BME280;7486;51.010;10.366;2023-01-28T11:05:18;99468.56;;;-3.74;69.52
14790;BME280;7486;51.010;10.366;2023-01-28T11:07:46;99469.19;;;-3.55;68.82
14790;BME280;7486;51.010;10.366;2023-01-28T11:10:32;99466.97;;;-3.17;67.43
14790;BME280;7486;51.010;10.366;2023-01-28T11:13:02;99469.34;;;-2.99;66.94
14790;BME280;7486;51.010;10.366;2023-01-28T11:15:30;99416.38;;;-3.23;66.65
14790;BME280;7486;51.010;10.366;2023-01-28T11:18:02;99470.28;;;-3.00;67.32
14790;BME280;7486;51.010;10.366;2023-01-28T11:20:42;99441.28;;;-3.06;66.15
14790;BME280;7486;51.010;10.366;2023-01-28T11:23:22;99461.50;;;-2.83;66.07
14790;BME280;7486;51.010;10.366;2023-01-28T11:26:05;99453.81;;;-2.70;65.76
14790;BME280;7486;51.010;10.366;2023-01-28T11:28:33;99433.69;;;-3.09;65.31
14790;BME280;7486;51.010;10.366;2023-01-28T11:31:01;99465.00;;;-2.98;65.03
14790;BME280;7486;51.010;10.366;2023-01-28T11:33:36;99457.03;;;-3.09;64.82
14790;BME280;7486;51.010;10.366;2023-01-28T11:39:20;99453.31;;;-3.19;65.09
14790;BME280;7486;51.010;10.366;2023-01-28T11:41:47;99459.97;;;-3.15;65.18
14790;BME280;7486;51.010;10.366;2023-01-28T11:44:25;99460.78;;;-3.29;64.32
14790;BME280;7486;51.010;10.366;2023-01-28T11:54:56;99454.53;;;-3.40;63.98
14790;BME280;7486;51.010;10.366;2023-01-28T12:08:56;99449.44;;;-2.98;64.10
14790;BME280;7486;51.010;10.366;2023-01-28T12:11:46;99454.44;;;-3.09;64.72
14790;BME280;7486;51.010;10.366;2023-01-28T12:20:02;99446.50;;;-3.22;64.88
14790;BME280;7486;51.010;10.366;2023-01-28T12:28:19;99426.19;;;-3.58;65.72
14790;BME280;7486;51.010;10.366;2023-01-28T12:36:24;99435.16;;;-3.49;65.37
14790;BME280;7486;51.010;10.366;2023-01-28T12:41:30;99406.41;;;-3.44;65.03
14790;BME280;7486;51.010;10.366;2023-01-28T12:44:07;99422.19;;;-3.19;65.28
14790;BME280;7486;51.010;10.366;2023-01-28T12:50:17;99438.63;;;-3.34;64.41
14790;BME280;7486;51.010;10.366;2023-01-28T12:52:41;99432.81;;;-3.24;65.61
14790;BME280;7486;51.010;10.366;2023-01-28T12:57:42;99441.19;;;-3.05;64.81
14790;BME280;7486;51.010;10.366;2023-01-28T13:00:29;99437.75;;;-2.91;64.50
14790;BME280;7486;51.010;10.366;2023-01-28T13:05:42;99439.41;;;-3.04;64.97
14790;BME280;7486;51.010;10.366;2023-01-28T13:08:14;99441.31;;;-2.92;64.37
14790;BME280;7486;51.010;10.366;2023-01-28T13:10:44;99399.34;;;-3.13;64.77
14790;BME280;7486;51.010;10.366;2023-01-28T13:15:57;99449.22;;;-3.23;65.72
14790;BME280;7486;51.010;10.366;2023-01-28T13:18:34;99446.84;;;-3.12;65.75
14790;BME280;7486;51.010;10.366;2023-01-28T13:21:34;99449.13;;;-3.52;65.98
14790;BME280;7486;51.010;10.366;2023-01-28T13:26:48;99445.09;;;-3.87;66.98
14790;BME280;7486;51.010;10.366;2023-01-28T13:31:53;99454.31;;;-3.52;65.32
14790;BME280;7486;51.010;10.366;2023-01-28T13:34:35;99446.81;;;-3.26;63.76
14790;BME280;7486;51.010;10.366;2023-01-28T13:37:06;99447.56;;;-3.10;63.81
14790;BME280;7486;51.010;10.366;2023-01-28T13:39:46;99449.59;;;-3.15;64.64
14790;BME280;7486;51.010;10.366;2023-01-28T13:42:25;99442.44;;;-3.56;65.49
14790;BME280;7486;51.010;10.366;2023-01-28T13:44:53;99402.09;;;-3.89;66.13
14790;BME280;7486;51.010;10.366;2023-01-28T13:47:32;99435.63;;;-3.42;65.43
14790;BME280;7486;51.010;10.366;2023-01-28T13:50:02;99444.72;;;-3.65;65.90
14790;BME280;7486;51.010;10.366;2023-01-28T14:19:01;99445.72;;;-3.08;63.56
14790;BME280;7486;51.010;10.366;2023-01-28T14:21:31;99400.38;;;-3.15;63.71
14790;BME280;7486;51.010;10.366;2023-01-28T14:24:00;99431.47;;;-2.87;64.46
14790;BME280;7486;51.010;10.366;2023-01-28T14:26:51;99424.47;;;-2.71;65.58
14790;BME280;7486;51.010;10.366;2023-01-28T14:30:42;99420.53;;;-2.35;64.32
14790;BME280;7486;51.010;10.366;2023-01-28T14:32:33;99409.50;;;-2.39;68.89
14790;BME280;7486;51.010;10.366;2023-01-28T14:35:06;99430.72;;;-2.32;66.75
14790;BME280;7486;51.010;10.366;2023-01-28T14:37:34;99429.13;;;-2.35;63.42
14790;BME280;7486;51.010;10.366;2023-01-28T14:40:03;99430.72;;;-2.32;61.40
14790;BME280;7486;51.010;10.366;2023-01-28T14:42:38;99399.91;;;-2.79;61.52
14790;BME280;7486;51.010;10.366;2023-01-28T14:53:45;99411.22;;;-2.25;65.40
14790;BME280;7486;51.010;10.366;2023-01-28T14:58:49;99393.03;;;-2.11;67.20
14790;BME280;7486;51.010;10.366;2023-01-28T15:01:23;99391.72;;;-2.04;66.66
14790;BME280;7486;51.010;10.366;2023-01-28T15:03:51;99389.25;;;-1.93;62.69
14790;BME280;7486;51.010;10.366;2023-01-28T15:06:20;99367.16;;;-2.39;63.04
14790;BME280;7486;51.010;10.366;2023-01-28T15:08:47;99373.13;;;-2.52;65.13
14790;BME280;7486;51.010;10.366;2023-01-28T15:11:20;99371.56;;;-2.54;66.06
14790;BME280;7486;51.010;10.366;2023-01-28T15:13:54;99385.19;;;-2.65;69.59
14790;BME280;7486;51.010;10.366;2023-01-28T15:16:24;99381.09;;;-2.55;68.76
14790;BME280;7486;51.010;10.366;2023-01-28T15:18:52;99392.56;;;-2.45;69.53
14790;BME280;7486;51.010;10.366;2023-01-28T15:21:23;99395.22;;;-2.32;69.75
14790;BME280;7486;51.010;10.366;2023-01-28T15:23:56;99415.09;;;-2.18;66.92
14790;BME280;7486;51.010;10.366;2023-01-28T15:26:25;99392.84;;;-2.08;63.09
14790;BME280;7486;51.010;10.366;2023-01-28T15:28:54;99389.13;;;-2.04;65.30